Broadstone, United Kingdom
Current Conditions -  °F | °C
As of 9:20 AM on Monday 24 Nov 2014 (Local Time) from EGHH Reporting Station
Clear Clear  
Wind Chill: 32°   Ceiling: Unl
Heat Index: 32°   Visibility: 6mi
Dew Point: 30°   Wind: 3mph
Humidity: 93%   Direction: NA
Pressure: 30.33"   Gusts: NA
Location:  50.76°N, 1.99°W
Report Text: EGHH 240920Z VRB03KT CAVOK 00/M01 Q1027
Loading
Personal Weather Stations






























Interactive Weather Map New forecast layout! Learn more

10-Day Weather Forecast

Advertisements
Track Severe Weather on mobile